createdAt,value
2017-04-09T00:00:07.101Z,93.60
2017-04-09T00:01:06.320Z,93.30
2017-04-09T00:02:06.297Z,93.10
2017-04-09T00:03:05.473Z,93.40
2017-04-09T00:04:04.714Z,93.70
2017-04-09T00:05:03.913Z,94.00
2017-04-09T00:06:03.156Z,94.30
2017-04-09T00:07:02.332Z,94.70
2017-04-09T00:08:02.265Z,94.80
2017-04-09T00:09:01.452Z,94.70
2017-04-09T00:10:00.989Z,94.20
2017-04-09T00:11:00.206Z,93.90
2017-04-09T00:12:00.146Z,94.30
2017-04-09T00:12:59.353Z,94.30
2017-04-09T00:13:58.587Z,94.60
2017-04-09T00:14:57.769Z,94.40
2017-04-09T00:15:56.980Z,94.30
2017-04-09T00:16:56.897Z,94.40
2017-04-09T00:17:56.133Z,94.80
2017-04-09T00:18:55.320Z,95.20
2017-04-09T00:19:54.520Z,95.40
2017-04-09T00:20:53.743Z,94.30
2017-04-09T00:21:53.686Z,94.20
2017-04-09T00:22:52.872Z,94.00
2017-04-09T00:23:52.091Z,93.80
2017-04-09T00:24:51.261Z,93.70
2017-04-09T00:25:50.436Z,93.80
2017-04-09T00:26:49.609Z,94.00
2017-04-09T00:27:48.826Z,94.00
2017-04-09T00:28:48.745Z,93.90
2017-04-09T00:29:47.948Z,93.20
2017-04-09T00:30:47.128Z,93.40
2017-04-09T00:31:46.345Z,93.40
2017-04-09T00:32:46.291Z,93.10
2017-04-09T00:33:45.501Z,93.30
2017-04-09T00:34:44.685Z,93.60
2017-04-09T00:35:43.888Z,93.90
2017-04-09T00:36:43.825Z,94.00
2017-04-09T00:37:43.010Z,94.20
2017-04-09T00:38:42.212Z,94.20
2017-04-09T00:39:41.417Z,94.10
2017-04-09T00:40:40.660Z,94.50
2017-04-09T00:41:39.848Z,94.80
2017-04-09T00:42:39.046Z,95.10
2017-04-09T00:43:38.261Z,95.20
2017-04-09T00:44:37.453Z,95.20
2017-04-09T00:45:36.669Z,95.20
2017-04-09T00:46:36.620Z,95.00
2017-04-09T00:47:35.816Z,95.00
2017-04-09T00:48:34.993Z,94.90
2017-04-09T00:49:34.928Z,94.80
2017-04-09T00:50:34.127Z,94.90
2017-04-09T00:51:33.352Z,95.10
2017-04-09T00:52:33.304Z,95.10
2017-04-09T00:53:32.537Z,94.70
2017-04-09T00:54:31.716Z,94.40
2017-04-09T00:55:30.896Z,94.30
2017-04-09T00:56:30.323Z,93.90
2017-04-09T00:57:29.829Z,93.90
2017-04-09T00:58:29.017Z,94.40
2017-04-09T00:59:28.194Z,94.70
2017-04-09T01:00:27.439Z,95.10
2017-04-09T01:01:27.376Z,95.40
2017-04-09T01:02:26.632Z,95.60
2017-04-09T01:03:26.580Z,95.70
2017-04-09T01:04:25.752Z,95.70
2017-04-09T01:05:24.940Z,95.60
2017-04-09T01:06:24.160Z,95.50
2017-04-09T01:07:23.342Z,95.50
2017-04-09T01:08:22.524Z,94.90
2017-04-09T01:09:22.041Z,94.60
2017-04-09T01:10:21.346Z,94.20
2017-04-09T01:11:21.313Z,94.10
2017-04-09T01:12:20.517Z,93.90
2017-04-09T01:13:19.701Z,94.00
2017-04-09T01:14:18.977Z,94.00
2017-04-09T01:15:18.504Z,93.90
2017-04-09T01:16:18.429Z,94.10
2017-04-09T01:17:17.632Z,93.20
2017-04-09T01:18:17.557Z,93.10
2017-04-09T01:19:16.736Z,93.00
2017-04-09T01:20:15.965Z,93.30
2017-04-09T01:21:15.215Z,93.40
2017-04-09T01:22:14.463Z,93.60
2017-04-09T01:23:14.408Z,93.60
2017-04-09T01:24:14.328Z,93.70
2017-04-09T01:25:13.542Z,93.70
2017-04-09T01:26:13.535Z,93.60
2017-04-09T01:27:12.757Z,93.80
2017-04-09T01:28:12.689Z,94.30
2017-04-09T01:29:11.889Z,94.60
2017-04-09T01:30:11.096Z,94.90
2017-04-09T01:31:10.324Z,95.10
2017-04-09T01:32:10.261Z,95.50
2017-04-09T01:33:09.479Z,95.10
2017-04-09T01:34:08.665Z,95.10
2017-04-09T01:35:07.897Z,95.30
2017-04-09T01:36:07.067Z,95.80
2017-04-09T01:37:06.306Z,95.90
2017-04-09T01:38:05.494Z,95.60
2017-04-09T01:39:05.576Z,95.70
2017-04-09T01:40:04.810Z,95.70
2017-04-09T01:41:03.991Z,95.90
2017-04-09T01:42:03.253Z,95.90
2017-04-09T01:43:02.447Z,95.30
2017-04-09T01:44:01.644Z,94.90
2017-04-09T01:45:01.245Z,94.90
2017-04-09T01:46:00.540Z,94.90
2017-04-09T01:46:59.726Z,95.10
2017-04-09T01:47:58.905Z,95.30
2017-04-09T01:48:58.081Z,95.50
2017-04-09T01:50:56.869Z,95.80
2017-04-09T01:51:56.060Z,96.00
2017-04-09T01:52:55.245Z,96.10
2017-04-09T01:53:54.436Z,96.00
2017-04-09T01:54:53.633Z,95.60
2017-04-09T01:55:52.833Z,94.70
2017-04-09T01:56:52.800Z,94.30
2017-04-09T01:57:52.043Z,94.10
2017-04-09T01:58:51.323Z,93.80
2017-04-09T01:59:50.492Z,93.70
2017-04-09T02:00:50.442Z,93.80
2017-04-09T02:01:49.645Z,93.70
2017-04-09T02:02:49.104Z,93.80
2017-04-09T02:03:48.300Z,93.90
2017-04-09T02:04:47.506Z,94.00
2017-04-09T02:05:46.695Z,94.00
2017-04-09T02:06:45.876Z,94.00
2017-04-09T02:07:45.062Z,94.10
2017-04-09T02:08:44.575Z,94.40
2017-04-09T02:09:43.753Z,94.70
2017-04-09T02:10:43.607Z,95.00
2017-04-09T02:11:43.531Z,95.20
2017-04-09T02:12:42.721Z,95.50
2017-04-09T02:13:41.896Z,96.00
2017-04-09T02:14:41.128Z,96.70
2017-04-09T02:15:40.320Z,96.30
2017-04-09T02:16:39.612Z,96.20
2017-04-09T02:17:38.816Z,95.90
2017-04-09T02:18:38.022Z,95.00
2017-04-09T02:19:37.952Z,94.80
2017-04-09T02:20:37.896Z,94.50
2017-04-09T02:21:37.079Z,94.10
2017-04-09T02:22:36.304Z,94.00
2017-04-09T02:23:35.481Z,94.10
2017-04-09T02:24:35.409Z,94.20
2017-04-09T02:25:34.607Z,94.20
2017-04-09T02:26:34.067Z,94.10
2017-04-09T02:27:33.252Z,94.10
2017-04-09T02:28:32.449Z,94.30
2017-04-09T02:29:32.376Z,94.20
2017-04-09T02:30:31.552Z,94.30
2017-04-09T02:31:30.738Z,94.20
2017-04-09T02:32:30.024Z,94.20
2017-04-09T02:33:29.226Z,94.20
2017-04-09T02:34:28.440Z,94.20
2017-04-09T02:35:28.394Z,94.30
2017-04-09T02:36:27.582Z,94.80
2017-04-09T02:37:26.760Z,94.60
2017-04-09T02:38:25.974Z,94.60
2017-04-09T02:39:25.176Z,94.60
2017-04-09T02:40:25.125Z,94.90
2017-04-09T02:41:24.332Z,94.70
2017-04-09T02:42:23.577Z,94.80
2017-04-09T02:43:22.748Z,94.90
2017-04-09T02:44:22.281Z,94.90
2017-04-09T02:45:21.461Z,94.80
2017-04-09T02:46:21.376Z,95.10
2017-04-09T02:47:20.573Z,94.80
2017-04-09T02:48:19.773Z,94.90
2017-04-09T02:49:18.950Z,95.10
2017-04-09T02:50:18.897Z,95.20
2017-04-09T02:51:18.078Z,95.50
2017-04-09T02:52:17.305Z,95.60
2017-04-09T02:53:16.497Z,95.60
2017-04-09T02:54:15.685Z,95.30
2017-04-09T02:55:14.870Z,95.00
2017-04-09T02:56:14.075Z,95.00
2017-04-09T02:57:13.272Z,95.30
2017-04-09T02:58:13.196Z,95.70
2017-04-09T02:59:12.403Z,95.70
2017-04-09T03:00:11.625Z,96.00
2017-04-09T03:01:11.542Z,96.20
2017-04-09T03:02:10.980Z,96.30
2017-04-09T03:03:10.157Z,96.30
2017-04-09T03:04:09.332Z,96.40
2017-04-09T03:05:08.511Z,96.40
2017-04-09T03:06:07.700Z,96.40
2017-04-09T03:07:06.907Z,96.50
2017-04-09T03:08:06.149Z,96.30
2017-04-09T03:09:05.845Z,95.50
2017-04-09T03:10:05.032Z,94.70
2017-04-09T03:11:04.196Z,94.60
2017-04-09T03:12:04.113Z,94.40
2017-04-09T03:13:03.329Z,94.30
2017-04-09T03:14:02.564Z,94.20
2017-04-09T03:15:02.516Z,94.50
2017-04-09T03:16:01.691Z,94.20
2017-04-09T03:17:00.913Z,94.20
2017-04-09T03:18:00.113Z,94.30
2017-04-09T03:18:59.321Z,94.30
2017-04-09T03:19:58.841Z,94.40
2017-04-09T03:20:58.022Z,94.30
2017-04-09T03:21:57.229Z,94.10
2017-04-09T03:22:56.404Z,94.00
2017-04-09T03:23:55.580Z,94.00
2017-04-09T03:24:54.755Z,94.10
2017-04-09T03:25:54.240Z,94.10
2017-04-09T03:26:53.417Z,94.20
2017-04-09T03:27:52.609Z,94.40
2017-04-09T03:28:51.845Z,94.70
2017-04-09T03:29:51.024Z,94.90
2017-04-09T03:30:50.959Z,95.00
2017-04-09T03:31:50.165Z,95.20
2017-04-09T03:32:49.330Z,95.20
2017-04-09T03:33:48.509Z,95.20
2017-04-09T03:34:47.681Z,95.50
2017-04-09T03:35:46.908Z,95.70
2017-04-09T03:36:46.128Z,95.90
2017-04-09T03:37:45.544Z,96.10
2017-04-09T03:38:45.476Z,96.20
2017-04-09T03:39:44.665Z,96.20
2017-04-09T03:40:43.872Z,96.20
2017-04-09T03:41:43.813Z,95.80
2017-04-09T03:42:43.741Z,95.10
2017-04-09T03:43:42.961Z,94.60
2017-04-09T03:44:42.160Z,94.40
2017-04-09T03:45:41.411Z,94.40
2017-04-09T03:46:40.603Z,95.00
2017-04-09T03:47:40.553Z,95.00
2017-04-09T03:48:39.757Z,95.30
2017-04-09T03:49:38.980Z,95.60
2017-04-09T03:50:38.905Z,95.70
2017-04-09T03:51:38.830Z,96.10
2017-04-09T03:52:38.019Z,96.20
2017-04-09T03:53:37.245Z,96.20
2017-04-09T03:54:36.435Z,95.00
2017-04-09T03:55:36.593Z,94.70
2017-04-09T03:56:35.788Z,94.50
2017-04-09T03:57:34.980Z,94.50
2017-04-09T03:58:34.169Z,94.50
2017-04-09T03:59:33.360Z,94.60
2017-04-09T04:00:33.361Z,94.80
2017-04-09T04:01:33.344Z,95.20
2017-04-09T04:02:32.530Z,95.50
2017-04-09T04:03:31.729Z,95.90
2017-04-09T04:04:31.656Z,96.20
2017-04-09T04:05:30.835Z,96.50
2017-04-09T04:06:30.012Z,96.80
2017-04-09T04:07:29.977Z,96.50
2017-04-09T04:08:29.161Z,96.60
2017-04-09T04:09:28.375Z,96.80
2017-04-09T04:10:27.589Z,96.90
2017-04-09T04:11:26.780Z,96.90
2017-04-09T04:12:26.729Z,96.90
2017-04-09T04:13:26.248Z,96.90
2017-04-09T04:14:25.448Z,96.90
2017-04-09T04:15:24.640Z,96.90
2017-04-09T04:16:23.830Z,97.00
2017-04-09T04:17:23.764Z,97.10
2017-04-09T04:18:22.960Z,97.10
2017-04-09T04:19:22.172Z,97.10
2017-04-09T04:20:21.356Z,96.40
2017-04-09T04:21:20.545Z,95.70
2017-04-09T04:22:19.727Z,94.90
2017-04-09T04:23:18.947Z,94.40
2017-04-09T04:24:18.269Z,94.10
2017-04-09T04:25:17.480Z,93.90
2017-04-09T04:26:16.668Z,93.80
2017-04-09T04:27:15.861Z,93.80
2017-04-09T04:28:15.040Z,93.80
2017-04-09T04:29:14.231Z,93.60
2017-04-09T04:30:13.433Z,93.70
2017-04-09T04:31:12.867Z,93.80
2017-04-09T04:32:12.833Z,93.90
2017-04-09T04:33:12.025Z,94.00
2017-04-09T04:34:11.221Z,94.10
2017-04-09T04:35:10.447Z,94.20
2017-04-09T04:36:10.423Z,94.10
2017-04-09T04:37:09.641Z,94.20
2017-04-09T04:38:08.828Z,94.20
2017-04-09T04:39:08.021Z,94.20
2017-04-09T04:40:07.209Z,94.20
2017-04-09T04:41:06.409Z,94.10
2017-04-09T04:42:05.604Z,94.20
2017-04-09T04:43:04.829Z,94.30
2017-04-09T04:44:04.025Z,94.50
2017-04-09T04:45:03.237Z,94.60
2017-04-09T04:46:03.151Z,94.70
2017-04-09T04:47:02.345Z,94.80
2017-04-09T04:48:01.538Z,94.90
2017-04-09T04:49:01.032Z,95.20
2017-04-09T04:50:00.219Z,95.20
2017-04-09T04:50:59.409Z,95.30
2017-04-09T04:51:58.600Z,95.30
2017-04-09T04:52:57.798Z,95.30
2017-04-09T04:53:56.983Z,95.20
2017-04-09T04:54:56.244Z,95.20
2017-04-09T04:55:55.444Z,95.30
2017-04-09T04:56:55.396Z,95.30
2017-04-09T04:57:55.314Z,95.20
2017-04-09T04:58:54.508Z,94.90
2017-04-09T04:59:53.701Z,94.70
2017-04-09T05:00:52.980Z,94.60
2017-04-09T05:01:52.173Z,94.60
2017-04-09T05:02:51.365Z,94.50
2017-04-09T05:03:50.569Z,94.40
2017-04-09T05:04:49.757Z,94.30
2017-04-09T05:05:48.944Z,94.70
2017-04-09T05:06:48.152Z,94.20
2017-04-09T05:07:48.087Z,94.30
2017-04-09T05:08:47.269Z,94.20
2017-04-09T05:09:46.453Z,94.30
2017-04-09T05:10:45.642Z,94.20
2017-04-09T05:11:44.844Z,94.00
2017-04-09T05:12:44.065Z,93.80
2017-04-09T05:13:43.256Z,93.30
2017-04-09T05:14:42.473Z,92.80
2017-04-09T05:15:42.397Z,92.50
2017-04-09T05:16:41.585Z,91.80
2017-04-09T05:17:40.760Z,91.10
2017-04-09T05:18:39.969Z,90.60
2017-04-09T05:19:39.915Z,90.20
2017-04-09T05:20:39.109Z,90.00
2017-04-09T05:22:37.761Z,89.10
2017-04-09T05:23:36.960Z,88.30
2017-04-09T05:24:36.192Z,87.00
2017-04-09T05:25:35.404Z,85.50
2017-04-09T05:26:34.596Z,85.20
2017-04-09T05:27:33.788Z,84.70
2017-04-09T05:28:32.980Z,84.00
2017-04-09T05:29:32.909Z,82.90
2017-04-09T05:30:32.448Z,81.20
2017-04-09T05:31:31.637Z,80.20
2017-04-09T05:32:30.823Z,79.30
2017-04-09T05:33:30.012Z,78.90
2017-04-09T05:34:29.193Z,78.40
2017-04-09T05:35:28.384Z,78.60
2017-04-09T05:36:27.653Z,77.00
2017-04-09T05:37:27.587Z,75.70
2017-04-09T05:38:26.772Z,75.00
2017-04-09T05:39:25.973Z,74.50
2017-04-09T05:40:25.917Z,73.80
2017-04-09T05:41:27.073Z,73.60
2017-04-09T05:42:26.624Z,74.00
2017-04-09T05:43:25.809Z,72.90
2017-04-09T05:44:24.992Z,71.90
2017-04-09T05:45:24.173Z,71.10
2017-04-09T05:46:24.106Z,70.10
2017-04-09T05:47:23.692Z,68.60
2017-04-09T05:48:23.619Z,68.40
2017-04-09T05:49:22.813Z,68.60
2017-04-09T05:50:22.016Z,68.30
2017-04-09T05:51:21.213Z,67.70
2017-04-09T05:52:20.416Z,67.40
2017-04-09T05:53:19.636Z,66.70
2017-04-09T05:54:19.572Z,66.50
2017-04-09T05:55:19.510Z,66.70
2017-04-09T05:56:18.708Z,66.70
2017-04-09T05:57:17.900Z,65.60
2017-04-09T05:58:17.124Z,65.60
2017-04-09T05:59:16.348Z,65.50
2017-04-09T06:00:15.540Z,65.60
2017-04-09T06:03:13.677Z,63.80
2017-04-09T06:04:12.894Z,63.60
2017-04-09T06:05:12.365Z,63.40
2017-04-09T06:06:11.558Z,62.90
2017-04-09T06:07:10.751Z,62.20
2017-04-09T06:08:09.953Z,61.90
2017-04-09T06:09:09.492Z,61.40
2017-04-09T06:10:08.713Z,60.60
2017-04-09T06:11:07.944Z,59.80
2017-04-09T06:12:07.874Z,60.10
2017-04-09T06:13:07.075Z,59.50
2017-04-09T06:14:06.284Z,59.40
2017-04-09T06:15:06.243Z,58.70
2017-04-09T06:16:05.467Z,58.50
2017-04-09T06:17:05.749Z,58.00
2017-04-09T06:18:04.944Z,57.30
2017-04-09T06:19:04.173Z,57.30
2017-04-09T06:20:03.353Z,56.60
2017-04-09T06:21:03.311Z,56.10
2017-04-09T06:22:02.512Z,56.20
2017-04-09T06:23:01.739Z,56.10
2017-04-09T06:24:01.685Z,55.40
2017-04-09T06:25:01.616Z,54.80
2017-04-09T06:26:00.821Z,54.90
2017-04-09T06:27:00.099Z,53.90
2017-04-09T06:27:59.322Z,54.00
2017-04-09T06:28:58.570Z,53.70
2017-04-09T06:29:57.772Z,54.30
2017-04-09T06:30:56.961Z,54.50
2017-04-09T06:31:56.154Z,54.30
2017-04-09T06:32:55.476Z,53.50
2017-04-09T06:33:54.681Z,52.90
2017-04-09T06:34:54.184Z,52.70
2017-04-09T06:35:54.115Z,53.20
2017-04-09T06:36:54.064Z,52.90
2017-04-09T06:37:53.264Z,54.40
2017-04-09T06:38:52.468Z,53.30
2017-04-09T06:39:51.669Z,53.80
2017-04-09T06:40:51.642Z,53.30
2017-04-09T06:41:50.873Z,53.80
2017-04-09T06:42:50.045Z,53.50
2017-04-09T06:43:49.228Z,53.30
2017-04-09T06:44:48.404Z,54.50
2017-04-09T06:45:47.589Z,54.50
2017-04-09T06:46:46.793Z,54.30
2017-04-09T06:47:45.965Z,55.10
2017-04-09T06:48:45.154Z,53.70
2017-04-09T06:49:44.333Z,54.10
2017-04-09T06:50:43.526Z,54.20
2017-04-09T06:51:42.714Z,53.40
2017-04-09T06:52:42.892Z,51.70
2017-04-09T06:53:42.075Z,50.50
2017-04-09T06:54:41.258Z,50.40
2017-04-09T06:55:40.451Z,50.10
2017-04-09T06:56:39.635Z,49.80
2017-04-09T06:57:38.817Z,50.20
2017-04-09T06:58:38.760Z,50.60
2017-04-09T06:59:37.953Z,50.20
2017-04-09T07:00:37.127Z,49.60
2017-04-09T07:01:36.305Z,49.70
2017-04-09T07:02:39.965Z,49.80
2017-04-09T07:03:39.169Z,50.80
2017-04-09T07:04:38.362Z,49.10
2017-04-09T07:05:37.582Z,49.10
2017-04-09T07:06:36.765Z,49.30
2017-04-09T07:07:35.952Z,49.40
2017-04-09T07:08:35.874Z,48.80
2017-04-09T07:09:35.091Z,49.40
2017-04-09T07:10:35.023Z,48.10
2017-04-09T07:11:34.233Z,48.90
2017-04-09T07:12:33.417Z,48.60
2017-04-09T07:13:32.613Z,48.00
2017-04-09T07:14:31.817Z,47.00
2017-04-09T07:15:31.040Z,46.70
2017-04-09T07:16:30.232Z,47.30
2017-04-09T07:17:29.432Z,47.60
2017-04-09T07:18:28.633Z,48.10
2017-04-09T07:19:27.816Z,48.30
2017-04-09T07:20:26.998Z,47.20
2017-04-09T07:21:26.235Z,46.40
2017-04-09T07:22:25.412Z,46.20
2017-04-09T07:23:24.603Z,45.60
2017-04-09T07:24:23.779Z,46.40
2017-04-09T07:25:22.981Z,46.70
2017-04-09T07:26:22.185Z,46.50
2017-04-09T07:27:21.664Z,46.20
2017-04-09T07:28:20.853Z,46.50
2017-04-09T07:29:20.038Z,46.00
2017-04-09T07:30:19.233Z,46.40
2017-04-09T07:31:18.429Z,46.70
2017-04-09T07:32:17.605Z,46.10
2017-04-09T07:33:16.841Z,46.40
2017-04-09T07:34:16.773Z,47.20
2017-04-09T07:35:15.956Z,47.90
2017-04-09T07:36:15.140Z,47.60
2017-04-09T07:37:14.333Z,48.30
2017-04-09T07:38:13.520Z,48.40
2017-04-09T07:39:12.743Z,48.00
2017-04-09T07:40:11.921Z,47.00
2017-04-09T07:41:11.145Z,46.60
2017-04-09T07:42:10.355Z,46.50
2017-04-09T07:43:09.569Z,46.10
2017-04-09T07:44:08.752Z,45.80
2017-04-09T07:45:07.965Z,44.80
2017-04-09T07:46:07.139Z,45.00
2017-04-09T07:47:06.425Z,44.60
2017-04-09T07:48:05.656Z,43.90
2017-04-09T07:49:05.577Z,43.70
2017-04-09T07:50:04.771Z,43.80
2017-04-09T07:51:03.976Z,44.30
2017-04-09T07:52:03.168Z,44.10
2017-04-09T07:53:03.107Z,45.00
2017-04-09T07:54:02.289Z,43.80
2017-04-09T07:55:01.473Z,43.50
2017-04-09T07:56:00.680Z,43.00
2017-04-09T07:56:59.848Z,42.80
2017-04-09T07:57:59.028Z,41.30
2017-04-09T07:58:58.212Z,41.50
2017-04-09T07:59:58.132Z,40.80
2017-04-09T08:00:57.324Z,40.20
2017-04-09T08:01:56.523Z,39.40
2017-04-09T08:02:55.724Z,41.60
2017-04-09T08:03:54.914Z,41.30
2017-04-09T08:04:54.098Z,40.70
2017-04-09T08:05:53.280Z,41.30
2017-04-09T08:06:52.719Z,41.40
2017-04-09T08:07:51.897Z,42.30
2017-04-09T08:08:51.086Z,43.70
2017-04-09T08:09:50.273Z,42.50
2017-04-09T08:10:49.443Z,43.20
2017-04-09T08:11:48.621Z,43.20
2017-04-09T08:12:47.852Z,42.50
2017-04-09T08:13:47.052Z,42.90
2017-04-09T08:14:46.240Z,43.40
2017-04-09T08:15:45.433Z,43.20
2017-04-09T08:16:44.616Z,43.40
2017-04-09T08:17:43.788Z,43.50
2017-04-09T08:18:43.955Z,43.20
2017-04-09T08:19:43.138Z,42.90
2017-04-09T08:20:42.327Z,42.00
2017-04-09T08:21:41.536Z,42.30
2017-04-09T08:22:40.747Z,42.20
2017-04-09T08:23:39.933Z,42.00
2017-04-09T08:24:39.147Z,41.90
2017-04-09T08:25:38.332Z,43.60
2017-04-09T08:26:37.509Z,41.80
2017-04-09T08:27:36.700Z,42.10
2017-04-09T08:28:36.635Z,42.30
2017-04-09T08:29:35.840Z,42.60
2017-04-09T08:30:35.070Z,42.40
2017-04-09T08:31:34.285Z,41.40
2017-04-09T08:32:33.476Z,42.20
2017-04-09T08:33:32.649Z,41.30
2017-04-09T08:34:32.077Z,41.20
2017-04-09T08:35:31.292Z,41.00
2017-04-09T08:36:30.481Z,41.30
2017-04-09T08:37:29.663Z,40.30
2017-04-09T08:38:28.864Z,39.20
2017-04-09T08:39:28.049Z,40.10
2017-04-09T08:40:27.240Z,40.10
2017-04-09T08:41:28.300Z,40.40
2017-04-09T08:42:27.496Z,39.40
2017-04-09T08:43:26.677Z,39.10
2017-04-09T08:44:25.873Z,37.50
2017-04-09T08:45:25.068Z,37.20
2017-04-09T08:46:24.281Z,38.20
2017-04-09T08:47:24.204Z,37.40
2017-04-09T08:48:23.396Z,38.60
2017-04-09T08:49:22.581Z,38.40
2017-04-09T08:50:21.776Z,38.50
2017-04-09T08:51:20.965Z,36.90
2017-04-09T08:52:20.489Z,36.70
2017-04-09T08:53:19.677Z,36.30
2017-04-09T08:54:19.265Z,35.60
2017-04-09T08:55:18.443Z,35.20
2017-04-09T08:56:18.404Z,34.90
2017-04-09T08:57:17.598Z,35.50
2017-04-09T08:58:16.822Z,35.00
2017-04-09T08:59:16.741Z,35.80
2017-04-09T09:00:16.663Z,36.30
2017-04-09T09:01:15.839Z,35.90
2017-04-09T09:02:15.013Z,36.50
2017-04-09T09:03:14.196Z,36.50
2017-04-09T09:04:14.149Z,36.50
2017-04-09T09:05:13.340Z,36.60
2017-04-09T09:06:12.529Z,35.60
2017-04-09T09:07:11.701Z,36.50
2017-04-09T09:08:10.883Z,35.20
2017-04-09T09:09:10.117Z,35.00
2017-04-09T09:10:09.300Z,34.70
2017-04-09T09:11:08.492Z,34.70
2017-04-09T09:12:07.728Z,35.30
2017-04-09T09:13:06.902Z,32.60
2017-04-09T09:14:06.088Z,31.70
2017-04-09T09:15:05.323Z,31.20
2017-04-09T09:16:04.533Z,31.40
2017-04-09T09:17:03.715Z,32.40
2017-04-09T09:18:02.920Z,31.70
2017-04-09T09:19:02.104Z,30.70
2017-04-09T09:20:02.033Z,30.60
2017-04-09T09:21:01.253Z,30.80
2017-04-09T09:22:00.454Z,30.70
2017-04-09T09:22:59.632Z,30.70
2017-04-09T09:23:59.549Z,30.80
2017-04-09T09:24:59.476Z,30.20
2017-04-09T09:25:58.654Z,29.40
2017-04-09T09:26:57.864Z,29.00
2017-04-09T09:27:57.053Z,29.70
2017-04-09T09:28:56.240Z,29.80
2017-04-09T09:29:55.424Z,30.20
2017-04-09T09:30:54.601Z,30.40
2017-04-09T09:31:53.826Z,30.30
2017-04-09T09:32:53.011Z,31.10
2017-04-09T09:33:52.199Z,32.60
2017-04-09T09:34:51.390Z,31.10
2017-04-09T09:35:50.571Z,33.40
2017-04-09T09:36:49.758Z,33.80
2017-04-09T09:37:49.709Z,32.70
2017-04-09T09:38:48.925Z,31.90
2017-04-09T09:39:48.864Z,34.30
2017-04-09T09:40:48.068Z,33.90
2017-04-09T09:41:48.507Z,34.20
2017-04-09T09:42:47.731Z,32.50
2017-04-09T09:43:47.676Z,32.60
2017-04-09T09:44:46.877Z,32.20
2017-04-09T09:45:46.819Z,33.70
2017-04-09T09:46:46.020Z,34.60
2017-04-09T09:47:45.220Z,34.60
2017-04-09T09:48:45.189Z,32.70
2017-04-09T09:49:44.388Z,32.00
2017-04-09T09:50:43.602Z,32.80
2017-04-09T09:51:43.547Z,32.70
2017-04-09T09:52:42.762Z,32.00
2017-04-09T09:53:41.978Z,32.20
2017-04-09T09:54:41.225Z,32.10
2017-04-09T09:55:40.452Z,31.20
2017-04-09T09:56:39.649Z,31.80
2017-04-09T09:57:38.873Z,32.20
2017-04-09T09:58:38.064Z,31.20
2017-04-09T09:59:37.277Z,32.30
2017-04-09T10:00:36.534Z,32.00
2017-04-09T10:01:35.739Z,32.00
2017-04-09T10:02:35.313Z,32.20
2017-04-09T10:03:34.508Z,32.30
2017-04-09T10:04:34.772Z,33.40
2017-04-09T10:05:34.009Z,32.70
2017-04-09T10:06:33.977Z,33.40
2017-04-09T10:07:33.194Z,34.30
2017-04-09T10:08:33.182Z,34.40
2017-04-09T10:09:32.393Z,32.60
2017-04-09T10:10:31.636Z,33.00
2017-04-09T10:11:30.856Z,32.60
2017-04-09T10:12:30.057Z,32.20
2017-04-09T10:13:29.264Z,32.90
2017-04-09T10:14:28.457Z,32.10
2017-04-09T10:15:27.672Z,31.80
2017-04-09T10:16:26.916Z,32.60
2017-04-09T10:17:26.167Z,31.60
2017-04-09T10:18:26.792Z,31.10
2017-04-09T10:19:30.079Z,31.10
2017-04-09T10:20:29.283Z,31.40
2017-04-09T10:21:29.246Z,31.00
2017-04-09T10:22:28.457Z,30.80
2017-04-09T10:23:27.704Z,31.00
2017-04-09T10:24:26.993Z,31.80
2017-04-09T10:25:26.208Z,33.20
2017-04-09T10:26:25.417Z,34.90
2017-04-09T10:27:24.651Z,34.20
2017-04-09T10:28:23.848Z,33.10
2017-04-09T10:29:23.048Z,33.70
2017-04-09T10:30:22.253Z,31.00
2017-04-09T10:31:21.462Z,30.70
2017-04-09T10:32:20.723Z,31.50
2017-04-09T10:33:19.959Z,31.30
2017-04-09T10:34:19.163Z,31.30
2017-04-09T10:35:18.356Z,31.20
2017-04-09T10:36:18.328Z,30.90
2017-04-09T10:37:17.549Z,32.40
2017-04-09T10:38:16.755Z,32.70
2017-04-09T10:39:16.736Z,31.70
2017-04-09T10:40:15.956Z,31.50
2017-04-09T10:41:15.177Z,32.40
2017-04-09T10:42:14.483Z,31.50
2017-04-09T10:43:13.668Z,31.60
2017-04-09T10:44:12.893Z,31.90
2017-04-09T10:45:12.891Z,32.60
2017-04-09T10:46:12.249Z,32.80
2017-04-09T10:47:11.417Z,33.30
2017-04-09T10:48:10.596Z,32.40
2017-04-09T10:49:09.783Z,33.70
2017-04-09T10:50:14.575Z,31.80
2017-04-09T10:51:13.784Z,33.00
2017-04-09T10:52:12.969Z,34.10
2017-04-09T10:53:12.202Z,34.50
2017-04-09T10:54:11.389Z,34.30
2017-04-09T10:55:10.588Z,31.60
2017-04-09T10:56:10.049Z,30.80
2017-04-09T10:57:09.235Z,31.80
2017-04-09T10:58:08.459Z,30.70
2017-04-09T10:59:07.669Z,31.00
2017-04-09T11:00:06.871Z,29.90
2017-04-09T11:01:06.061Z,29.80
2017-04-09T11:02:05.280Z,31.50
2017-04-09T11:03:04.461Z,31.20
2017-04-09T11:04:03.657Z,31.30
2017-04-09T11:05:02.856Z,30.60
2017-04-09T11:06:02.040Z,30.80
2017-04-09T11:07:01.258Z,31.00
2017-04-09T11:08:00.443Z,31.10
2017-04-09T11:08:59.651Z,31.20
2017-04-09T11:09:58.835Z,30.80
2017-04-09T11:10:58.024Z,29.40
2017-04-09T11:11:57.245Z,30.30
2017-04-09T11:12:57.165Z,30.00
2017-04-09T11:13:56.340Z,30.60
2017-04-09T11:14:55.520Z,31.70
2017-04-09T11:15:54.706Z,30.70
2017-04-09T11:16:53.892Z,30.50
2017-04-09T11:17:53.087Z,29.70
2017-04-09T11:18:52.267Z,29.90
2017-04-09T11:19:51.467Z,29.10
2017-04-09T11:20:50.650Z,29.70
2017-04-09T11:21:49.840Z,29.70
2017-04-09T11:22:49.063Z,28.90
2017-04-09T11:23:48.242Z,28.50
2017-04-09T11:24:47.427Z,30.00
2017-04-09T11:25:46.651Z,31.20
2017-04-09T11:26:45.840Z,30.80
2017-04-09T11:27:45.007Z,31.00
2017-04-09T11:28:44.968Z,29.60
2017-04-09T11:29:44.152Z,29.10
2017-04-09T11:30:43.334Z,29.30
2017-04-09T11:31:43.258Z,29.10
2017-04-09T11:32:42.429Z,30.30
2017-04-09T11:33:41.653Z,29.90
2017-04-09T11:34:41.577Z,28.10
2017-04-09T11:35:40.764Z,28.10
2017-04-09T11:36:39.949Z,27.60
2017-04-09T11:37:39.136Z,27.40
2017-04-09T11:38:39.359Z,27.30
2017-04-09T11:39:38.552Z,27.50
2017-04-09T11:40:38.475Z,28.90
2017-04-09T11:41:37.714Z,27.40
2017-04-09T11:42:36.912Z,27.80
2017-04-09T11:43:36.104Z,26.80
2017-04-09T11:44:36.082Z,26.30
2017-04-09T11:45:35.280Z,27.60
2017-04-09T11:46:34.516Z,26.20
2017-04-09T11:47:34.168Z,26.40
2017-04-09T11:48:34.098Z,26.90
2017-04-09T11:49:33.323Z,27.30
2017-04-09T11:50:32.510Z,27.10
2017-04-09T11:51:31.705Z,28.10
2017-04-09T11:52:30.900Z,27.70
2017-04-09T11:53:30.090Z,27.90
2017-04-09T11:54:29.300Z,27.40
2017-04-09T11:55:28.524Z,25.70
2017-04-09T11:56:28.449Z,26.50
2017-04-09T11:57:27.655Z,26.90
2017-04-09T11:58:27.261Z,28.60
2017-04-09T11:59:26.449Z,28.80
2017-04-09T12:00:25.675Z,27.80
2017-04-09T12:01:25.604Z,27.20
2017-04-09T12:02:24.808Z,29.30
2017-04-09T12:03:24.013Z,28.20
2017-04-09T12:04:23.216Z,27.70
2017-04-09T12:05:22.420Z,28.90
2017-04-09T12:06:21.631Z,28.40
2017-04-09T12:07:20.820Z,27.70
2017-04-09T12:08:20.018Z,28.60
2017-04-09T12:09:19.371Z,28.80
2017-04-09T12:10:18.562Z,28.10
2017-04-09T12:11:17.796Z,28.90
2017-04-09T12:12:17.752Z,28.80
2017-04-09T12:13:16.936Z,27.50
2017-04-09T12:14:16.876Z,26.70
2017-04-09T12:15:16.064Z,27.70
2017-04-09T12:16:15.277Z,27.40
2017-04-09T12:17:14.492Z,27.40
2017-04-09T12:18:13.693Z,27.80
2017-04-09T12:19:12.891Z,27.80
2017-04-09T12:20:12.828Z,28.10
2017-04-09T12:21:12.023Z,28.10
2017-04-09T12:22:11.243Z,27.90
2017-04-09T12:23:10.448Z,27.70
2017-04-09T12:24:09.648Z,29.00
2017-04-09T12:25:08.856Z,28.40
2017-04-09T12:26:08.044Z,27.50
2017-04-09T12:27:07.242Z,29.30
2017-04-09T12:28:07.202Z,28.00
2017-04-09T12:29:06.393Z,27.30
2017-04-09T12:30:05.572Z,28.00
2017-04-09T12:31:04.815Z,28.00
2017-04-09T12:32:04.005Z,27.60
2017-04-09T12:33:04.037Z,28.30
2017-04-09T12:34:03.233Z,28.90
2017-04-09T12:35:02.420Z,29.30
2017-04-09T12:36:01.621Z,28.20
2017-04-09T12:37:00.820Z,28.10
2017-04-09T12:38:00.013Z,27.40
2017-04-09T12:38:59.224Z,27.50
2017-04-09T12:39:58.430Z,27.10
2017-04-09T12:40:58.360Z,27.60
2017-04-09T12:41:57.552Z,28.90
2017-04-09T12:42:56.739Z,28.10
2017-04-09T12:43:55.937Z,28.20
2017-04-09T12:44:55.132Z,28.50
2017-04-09T12:45:54.312Z,27.60
2017-04-09T12:46:53.500Z,28.20
2017-04-09T12:47:52.681Z,27.90